Prosperity — WDF4676 — position and weather

sailwx.info

Track history (hours):
 
Tides and Currents Weather Stations Pressure Air Temp Water Temp Dewpoint Dewpoint Depression Visibility Wind Speed Wind Dir Waves Ship Positions

Prosperity

Owner: Pfau, Will, La Jolla, CA. More information available from US FCC via Universal Licensing System and Coast Guard Vessel Documentation Center.

Last reported at 2017-Oct-05 20:49 UTC. Time now 2017-Dec-17 19:44 UTC.
Position N 34°10' W 119°14'.
Warning: this ship's position is months out of date.

Length 16 m.

Type: Pleasure craft. MMSI: 367454560.

Date/timePositionNaut miles runAvg speedWind from/ knotsBaromVisibWave heightAir tempDewpointWater temp
2017-Oct-05 20:49N 34°10' W 119°14'0 0.6
2017-Oct-05 20:30N 34°10' W 119°13'510.8
2017-Oct-05 20:00N 34°05' W 119°10'713.7
2017-Oct-05 19:29N 33°60' W 119°04'913.8
2017-Oct-05 18:52N 33°54' W 118°57'514.1
2017-Oct-05 18:30N 33°50' W 118°53'813.8
2017-Oct-05 17:55N 33°45' W 118°46'613.7
2017-Oct-05 17:29N 33°40' W 118°41'713.5
2017-Oct-05 17:00N 33°36' W 118°35'2013.3
2017-Oct-05 15:30N 33°21' W 118°19'16 0.8
2017-Oct-04 19:18N 33°11' W 118°04'414.7
2017-Oct-04 19:00N 33°08' W 118°00'714.9
2017-Oct-04 18:30N 33°04' W 117°53'815.1
2017-Oct-04 18:00N 32°59' W 117°46'714.1
2017-Oct-04 17:30N 32°55' W 117°39'714.1
2017-Oct-04 17:01N 32°51' W 117°32'714.2
2017-Oct-04 16:30N 32°47' W 117°25'714.0
2017-Oct-04 16:01N 32°43' W 117°19'4 8.2
2017-Oct-04 15:29N 32°41' W 117°14'2 3.5
2017-Oct-04 14:59N 32°43' W 117°14'  
2017-Sep-27 17:20N 32°43' W 117°14'1 3.6
2017-Sep-27 17:00N 32°42' W 117°14'2 4.8
2017-Sep-27 16:30N 32°41' W 117°17'5 9.7
2017-Sep-27 15:59N 32°46' W 117°15'1 2.2
2017-Sep-27 15:29N 32°47' W 117°15'0 0.0
2017-Sep-27 14:59N 32°47' W 117°15'0 0.0
2017-Sep-27 14:29N 32°47' W 117°15'0 0.0
2017-Sep-27 13:59N 32°47' W 117°15'0 0.0
2017-Sep-27 13:29N 32°47' W 117°15'0 0.0
2017-Sep-27 12:59N 32°47' W 117°15'0 0.0
2017-Sep-27 12:29N 32°47' W 117°15'0 0.0
2017-Sep-27 11:59N 32°47' W 117°15'0 0.0
2017-Sep-27 11:29N 32°47' W 117°15'0 0.0
2017-Sep-27 10:59N 32°47' W 117°15'0 0.0
2017-Sep-27 10:29N 32°47' W 117°15'0 0.0
2017-Sep-27 09:59N 32°47' W 117°15'0 0.0
2017-Sep-27 09:29N 32°47' W 117°15'0 0.0
2017-Sep-27 08:59N 32°47' W 117°15'0 0.0
2017-Sep-27 08:26N 32°47' W 117°15'0 0.0
2017-Sep-27 07:53N 32°47' W 117°15'0 0.0
2017-Sep-27 07:29N 32°47' W 117°15'0 0.0
2017-Sep-27 06:50N 32°47' W 117°15'0 0.0
2017-Sep-27 06:29N 32°47' W 117°15'0 0.0
2017-Sep-27 05:50N 32°47' W 117°15'0 0.0
2017-Sep-27 05:29N 32°47' W 117°15'0 0.0
2017-Sep-27 04:53N 32°47' W 117°15'0 0.0
2017-Sep-27 04:29N 32°47' W 117°15'0 0.0
2017-Sep-27 03:53N 32°47' W 117°15'0 0.0
2017-Sep-27 03:26N 32°47' W 117°15'0 0.0
2017-Sep-27 02:56N 32°47' W 117°15'0 0.0
2017-Sep-27 02:29N 32°47' W 117°15'0 0.0
2017-Sep-27 01:56N 32°47' W 117°15'0 0.0
2017-Sep-27 01:29N 32°47' W 117°15'0 0.0
2017-Sep-27 00:53N 32°47' W 117°15'0 0.0
2017-Sep-27 00:26N 32°47' W 117°15'0 0.0
2017-Sep-26 23:59N 32°47' W 117°15'0 0.0
2017-Sep-26 23:11N 32°47' W 117°15'0 0.0
2017-Sep-26 22:59N 32°47' W 117°15'0 0.0
2017-Sep-26 22:29N 32°47' W 117°15'0 0.0
2017-Sep-26 21:59N 32°47' W 117°15'0 0.0
2017-Sep-26 21:23N 32°47' W 117°15'0 0.0
2017-Sep-26 20:59N 32°47' W 117°15'0 0.0
2017-Sep-26 20:29N 32°47' W 117°15'0 0.0
2017-Sep-26 19:59N 32°47' W 117°15'0 0.0
2017-Sep-26 19:26N 32°47' W 117°15'0 0.0
2017-Sep-26 18:50N 32°47' W 117°15'0 0.2
2017-Sep-26 18:30N 32°47' W 117°15'1 2.7
2017-Sep-26 18:00N 32°45' W 117°15'611.2
2017-Sep-26 17:29N 32°40' W 117°15'3 6.2
2017-Sep-26 17:00N 32°43' W 117°14'0 0.0
2017-Sep-25 21:57N 32°43' W 117°14'0 0.0
2017-Sep-25 21:30N 32°43' W 117°14'0 0.6
2017-Sep-25 20:57N 32°43' W 117°14'  
Track history (hours):
 
Tides and Currents Weather Stations Pressure Air Temp Water Temp Dewpoint Dewpoint Depression Visibility Wind Speed Wind Dir Waves Ship Positions

Prosperity

Owner: Pfau, Will, La Jolla, CA. More information available from US FCC via Universal Licensing System and Coast Guard Vessel Documentation Center.

Last reported at 2017-Oct-05 20:49 UTC. Time now 2017-Dec-17 19:44 UTC.
Position N 34°10' W 119°14'.
Warning: this ship's position is months out of date.

Length 16 m.

Type: Pleasure craft. MMSI: 367454560.

Date/timePositionNaut miles runAvg speedWind from/ knotsBaromVisibWave heightAir tempDewpointWater temp
2017-Oct-05 20:49N 34°10' W 119°14'0 0.6
2017-Oct-05 20:30N 34°10' W 119°13'510.8
2017-Oct-05 20:00N 34°05' W 119°10'713.7
2017-Oct-05 19:29N 33°60' W 119°04'913.8
2017-Oct-05 18:52N 33°54' W 118°57'514.1
2017-Oct-05 18:30N 33°50' W 118°53'813.8
2017-Oct-05 17:55N 33°45' W 118°46'613.7
2017-Oct-05 17:29N 33°40' W 118°41'713.5
2017-Oct-05 17:00N 33°36' W 118°35'2013.3
2017-Oct-05 15:30N 33°21' W 118°19'16 0.8
2017-Oct-04 19:18N 33°11' W 118°04'414.7
2017-Oct-04 19:00N 33°08' W 118°00'714.9
2017-Oct-04 18:30N 33°04' W 117°53'815.1
2017-Oct-04 18:00N 32°59' W 117°46'714.1
2017-Oct-04 17:30N 32°55' W 117°39'714.1
2017-Oct-04 17:01N 32°51' W 117°32'714.2
2017-Oct-04 16:30N 32°47' W 117°25'714.0
2017-Oct-04 16:01N 32°43' W 117°19'4 8.2
2017-Oct-04 15:29N 32°41' W 117°14'2 3.5
2017-Oct-04 14:59N 32°43' W 117°14'  
2017-Sep-27 17:20N 32°43' W 117°14'1 3.6
2017-Sep-27 17:00N 32°42' W 117°14'2 4.8
2017-Sep-27 16:30N 32°41' W 117°17'5 9.7
2017-Sep-27 15:59N 32°46' W 117°15'1 2.2
2017-Sep-27 15:29N 32°47' W 117°15'0 0.0
2017-Sep-27 14:59N 32°47' W 117°15'0 0.0
2017-Sep-27 14:29N 32°47' W 117°15'0 0.0
2017-Sep-27 13:59N 32°47' W 117°15'0 0.0
2017-Sep-27 13:29N 32°47' W 117°15'0 0.0
2017-Sep-27 12:59N 32°47' W 117°15'0 0.0
2017-Sep-27 12:29N 32°47' W 117°15'0 0.0
2017-Sep-27 11:59N 32°47' W 117°15'0 0.0
2017-Sep-27 11:29N 32°47' W 117°15'0 0.0
2017-Sep-27 10:59N 32°47' W 117°15'0 0.0
2017-Sep-27 10:29N 32°47' W 117°15'0 0.0
2017-Sep-27 09:59N 32°47' W 117°15'0 0.0
2017-Sep-27 09:29N 32°47' W 117°15'0 0.0
2017-Sep-27 08:59N 32°47' W 117°15'0 0.0
2017-Sep-27 08:26N 32°47' W 117°15'0 0.0
2017-Sep-27 07:53N 32°47' W 117°15'0 0.0
2017-Sep-27 07:29N 32°47' W 117°15'0 0.0
2017-Sep-27 06:50N 32°47' W 117°15'0 0.0
2017-Sep-27 06:29N 32°47' W 117°15'0 0.0
2017-Sep-27 05:50N 32°47' W 117°15'0 0.0
2017-Sep-27 05:29N 32°47' W 117°15'0 0.0
2017-Sep-27 04:53N 32°47' W 117°15'0 0.0
2017-Sep-27 04:29N 32°47' W 117°15'0 0.0
2017-Sep-27 03:53N 32°47' W 117°15'0 0.0
2017-Sep-27 03:26N 32°47' W 117°15'0 0.0
2017-Sep-27 02:56N 32°47' W 117°15'0 0.0
2017-Sep-27 02:29N 32°47' W 117°15'0 0.0
2017-Sep-27 01:56N 32°47' W 117°15'0 0.0
2017-Sep-27 01:29N 32°47' W 117°15'0 0.0
2017-Sep-27 00:53N 32°47' W 117°15'0 0.0
2017-Sep-27 00:26N 32°47' W 117°15'0 0.0
2017-Sep-26 23:59N 32°47' W 117°15'0 0.0
2017-Sep-26 23:11N 32°47' W 117°15'0 0.0
2017-Sep-26 22:59N 32°47' W 117°15'0 0.0
2017-Sep-26 22:29N 32°47' W 117°15'0 0.0
2017-Sep-26 21:59N 32°47' W 117°15'0 0.0
2017-Sep-26 21:23N 32°47' W 117°15'0 0.0
2017-Sep-26 20:59N 32°47' W 117°15'0 0.0
2017-Sep-26 20:29N 32°47' W 117°15'0 0.0
2017-Sep-26 19:59N 32°47' W 117°15'0 0.0
2017-Sep-26 19:26N 32°47' W 117°15'0 0.0
2017-Sep-26 18:50N 32°47' W 117°15'0 0.2
2017-Sep-26 18:30N 32°47' W 117°15'1 2.7
2017-Sep-26 18:00N 32°45' W 117°15'611.2
2017-Sep-26 17:29N 32°40' W 117°15'3 6.2
2017-Sep-26 17:00N 32°43' W 117°14'0 0.0
2017-Sep-25 21:57N 32°43' W 117°14'0 0.0
2017-Sep-25 21:30N 32°43' W 117°14'0 0.6
2017-Sep-25 20:57N 32°43' W 117°14'  

Dump ship's entire track history